createdAt,value
2022-12-15T00:00:25.410Z,-2.40
2022-12-15T00:03:11.389Z,-2.70
2022-12-15T00:05:57.410Z,-3.20
2022-12-15T00:08:43.107Z,-3.40
2022-12-15T00:11:31.424Z,-3.30
2022-12-15T00:14:17.227Z,-3.00
2022-12-15T00:17:03.020Z,-2.70
2022-12-15T00:19:48.896Z,-2.60
2022-12-15T00:22:34.605Z,-2.50
2022-12-15T00:25:20.533Z,-2.60
2022-12-15T00:28:06.191Z,-2.50
2022-12-15T00:30:54.055Z,-2.70
2022-12-15T00:33:43.221Z,-2.70
2022-12-15T00:36:31.508Z,-2.70
2022-12-15T00:39:03.977Z,-2.80
2022-12-15T00:41:31.640Z,-2.70
2022-12-15T00:43:59.059Z,-2.70
2022-12-15T00:46:44.744Z,-2.70
2022-12-15T00:49:32.044Z,-2.60
2022-12-15T00:52:17.804Z,-2.50
2022-12-15T00:55:03.813Z,-2.40
2022-12-15T00:57:49.385Z,-2.40
2022-12-15T01:00:35.364Z,-2.40
2022-12-15T01:03:27.599Z,-2.40
2022-12-15T01:06:15.905Z,-2.80
2022-12-15T01:09:01.775Z,-2.90
2022-12-15T01:11:47.996Z,-3.40
2022-12-15T01:14:34.072Z,-3.60
2022-12-15T01:17:22.301Z,-3.40
2022-12-15T01:20:08.304Z,-3.30
2022-12-15T01:22:37.104Z,-3.10
2022-12-15T01:25:07.845Z,-3.00
2022-12-15T01:27:35.908Z,-3.10
2022-12-15T01:30:04.676Z,-3.00
2022-12-15T01:32:32.095Z,-2.90
2022-12-15T01:34:59.342Z,-2.90
2022-12-15T01:37:29.062Z,-2.90
2022-12-15T01:40:16.984Z,-3.00
2022-12-15T01:42:44.565Z,-3.10
2022-12-15T01:45:24.394Z,-3.00
2022-12-15T01:48:00.681Z,-2.90
2022-12-15T01:50:29.610Z,-2.80
2022-12-15T01:52:56.908Z,-2.80
2022-12-15T01:55:28.209Z,-2.80
2022-12-15T01:58:00.152Z,-2.90
2022-12-15T02:00:30.705Z,-2.80
2022-12-15T02:03:02.685Z,-2.80
2022-12-15T02:05:31.777Z,-2.70
2022-12-15T02:08:06.186Z,-2.70
2022-12-15T02:10:57.099Z,-2.70
2022-12-15T02:13:42.910Z,-2.60
2022-12-15T02:16:43.494Z,-3.00
2022-12-15T02:19:32.648Z,-3.00
2022-12-15T02:22:32.824Z,-2.80
2022-12-15T02:25:21.986Z,-2.80
2022-12-15T02:28:10.652Z,-3.00
2022-12-15T02:31:33.910Z,-3.10
2022-12-15T02:34:35.309Z,-3.00
2022-12-15T02:37:32.088Z,-3.20
2022-12-15T02:40:00.188Z,-3.10
2022-12-15T02:42:32.054Z,-3.00
2022-12-15T02:45:10.990Z,-3.00
2022-12-15T02:47:46.311Z,-3.20
2022-12-15T02:50:41.759Z,-3.20
2022-12-15T02:53:30.625Z,-3.00
2022-12-15T02:56:19.836Z,-3.00
2022-12-15T02:59:20.526Z,-2.90
2022-12-15T03:02:06.099Z,-2.90
2022-12-15T03:04:36.095Z,-3.00
2022-12-15T03:07:17.341Z,-3.20
2022-12-15T03:09:44.780Z,-3.40
2022-12-15T03:12:12.321Z,-3.30
2022-12-15T03:14:41.556Z,-3.10
2022-12-15T03:17:10.329Z,-3.00
2022-12-15T03:19:37.990Z,-2.90
2022-12-15T03:22:05.679Z,-2.90
2022-12-15T03:24:35.834Z,-3.00
2022-12-15T03:27:06.540Z,-2.90
2022-12-15T03:29:34.035Z,-3.00
2022-12-15T03:32:02.436Z,-3.00
2022-12-15T03:34:31.567Z,-2.90
2022-12-15T03:37:01.437Z,-2.90
2022-12-15T03:39:30.224Z,-3.00
2022-12-15T03:42:04.558Z,-3.20
2022-12-15T03:44:33.056Z,-3.40
2022-12-15T03:47:03.860Z,-3.30
2022-12-15T03:49:32.900Z,-3.20
2022-12-15T03:52:05.124Z,-3.30
2022-12-15T03:54:32.606Z,-3.40
2022-12-15T03:57:04.274Z,-3.50
2022-12-15T03:59:31.719Z,-3.40
2022-12-15T04:01:59.172Z,-3.40
2022-12-15T04:04:27.677Z,-3.60
2022-12-15T04:06:55.581Z,-3.60
2022-12-15T04:09:23.574Z,-3.50
2022-12-15T04:11:51.958Z,-3.50
2022-12-15T04:14:22.426Z,-3.40
2022-12-15T04:16:50.372Z,-3.30
2022-12-15T04:19:36.838Z,-3.20
2022-12-15T04:22:05.661Z,-3.10
2022-12-15T04:24:52.817Z,-3.10
2022-12-15T04:27:40.413Z,-3.00
2022-12-15T04:30:30.576Z,-3.10
2022-12-15T04:33:20.518Z,-3.30
2022-12-15T04:36:09.615Z,-3.40
2022-12-15T04:38:59.701Z,-3.40
2022-12-15T04:41:46.357Z,-3.40
2022-12-15T04:44:32.766Z,-3.30
2022-12-15T04:47:19.576Z,-3.30
2022-12-15T04:50:05.795Z,-3.20
2022-12-15T04:52:52.655Z,-3.20
2022-12-15T04:55:42.377Z,-3.20
2022-12-15T04:58:30.457Z,-3.20
2022-12-15T05:01:16.957Z,-3.10
2022-12-15T05:04:06.219Z,-3.10
2022-12-15T05:06:53.112Z,-3.30
2022-12-15T05:09:39.915Z,-3.70
2022-12-15T05:12:26.624Z,-3.60
2022-12-15T05:15:15.482Z,-3.40
2022-12-15T05:18:01.948Z,-3.40
2022-12-15T05:20:53.091Z,-3.50
2022-12-15T05:23:40.455Z,-3.60
2022-12-15T05:26:29.852Z,-3.80
2022-12-15T05:29:16.120Z,-3.80
2022-12-15T05:31:54.939Z,-3.80
2022-12-15T05:34:31.819Z,-3.60
2022-12-15T05:37:03.705Z,-3.40
2022-12-15T05:39:35.290Z,-3.30
2022-12-15T05:42:04.576Z,-3.20
2022-12-15T05:44:34.948Z,-3.20
2022-12-15T05:47:05.155Z,-3.40
2022-12-15T05:49:36.155Z,-3.50
2022-12-15T05:52:08.086Z,-3.60
2022-12-15T05:54:40.576Z,-3.60
2022-12-15T05:57:10.736Z,-3.70
2022-12-15T05:59:38.980Z,-3.90
2022-12-15T06:02:11.857Z,-4.00
2022-12-15T06:04:39.861Z,-4.30
2022-12-15T06:07:08.132Z,-4.10
2022-12-15T06:09:35.926Z,-3.90
2022-12-15T06:12:07.726Z,-3.70
2022-12-15T06:14:38.153Z,-3.60
2022-12-15T06:17:07.034Z,-3.60
2022-12-15T06:19:36.337Z,-3.50
2022-12-15T06:22:08.394Z,-3.30
2022-12-15T06:24:37.436Z,-3.50
2022-12-15T06:27:06.514Z,-3.60
2022-12-15T06:29:35.127Z,-4.00
2022-12-15T06:32:02.607Z,-4.00
2022-12-15T06:34:31.327Z,-3.80
2022-12-15T06:36:59.761Z,-3.70
2022-12-15T06:39:29.586Z,-3.90
2022-12-15T06:41:59.788Z,-4.10
2022-12-15T06:44:28.630Z,-4.40
2022-12-15T06:46:57.200Z,-4.40
2022-12-15T06:49:25.948Z,-4.20
2022-12-15T06:51:53.460Z,-4.00
2022-12-15T06:54:23.492Z,-3.80
2022-12-15T06:56:50.817Z,-3.70
2022-12-15T06:59:20.884Z,-3.50
2022-12-15T07:01:51.879Z,-3.50
2022-12-15T07:04:20.500Z,-3.30
2022-12-15T07:06:49.102Z,-3.30
2022-12-15T07:09:18.977Z,-3.40
2022-12-15T07:11:49.401Z,-3.60
2022-12-15T07:14:22.270Z,-3.80
2022-12-15T07:16:49.856Z,-3.80
2022-12-15T07:19:21.991Z,-3.70
2022-12-15T07:21:52.879Z,-3.60
2022-12-15T07:24:20.203Z,-3.40
2022-12-15T07:26:49.637Z,-3.40
2022-12-15T07:29:22.898Z,-3.70
2022-12-15T07:31:50.743Z,-3.80
2022-12-15T07:34:18.187Z,-4.10
2022-12-15T07:36:51.605Z,-4.30
2022-12-15T07:39:21.708Z,-4.30
2022-12-15T07:41:51.534Z,-4.30
2022-12-15T07:44:23.310Z,-4.30
2022-12-15T07:46:50.596Z,-4.40
2022-12-15T07:49:18.508Z,-4.40
2022-12-15T07:51:48.059Z,-4.30
2022-12-15T07:54:18.043Z,-4.10
2022-12-15T07:56:50.238Z,-3.90
2022-12-15T07:59:17.957Z,-3.80
2022-12-15T08:01:50.720Z,-3.70
2022-12-15T08:04:20.198Z,-3.60
2022-12-15T08:06:47.364Z,-3.40
2022-12-15T08:09:14.579Z,-3.30
2022-12-15T08:11:42.191Z,-3.20
2022-12-15T08:14:15.223Z,-3.10
2022-12-15T08:16:45.600Z,-3.00
2022-12-15T08:19:15.298Z,-3.00
2022-12-15T08:21:46.745Z,-2.90
2022-12-15T08:24:15.701Z,-2.70
2022-12-15T08:26:44.203Z,-2.90
2022-12-15T08:32:09.229Z,-2.70
2022-12-15T08:34:36.739Z,-2.60
2022-12-15T08:37:03.963Z,-2.50
2022-12-15T08:39:33.683Z,-2.40
2022-12-15T08:42:00.927Z,-2.40
2022-12-15T08:44:30.683Z,-2.40
2022-12-15T08:46:57.965Z,-2.30
2022-12-15T08:49:29.642Z,-2.20
2022-12-15T08:51:56.915Z,-2.10
2022-12-15T08:54:26.440Z,-2.00
2022-12-15T08:56:53.695Z,-1.80
2022-12-15T08:59:23.324Z,-1.40
2022-12-15T09:01:52.791Z,-1.00
2022-12-15T09:04:20.212Z,-0.50
2022-12-15T09:06:50.797Z,-0.20
2022-12-15T09:09:19.364Z,0.10
2022-12-15T09:11:46.697Z,0.60
2022-12-15T09:14:14.802Z,2.40
2022-12-15T09:16:42.067Z,4.60
2022-12-15T09:19:12.595Z,6.20
2022-12-15T09:21:40.211Z,7.50
2022-12-15T09:24:11.349Z,8.80
2022-12-15T09:26:38.779Z,9.90
2022-12-15T09:29:11.734Z,10.90
2022-12-15T09:31:40.116Z,11.70
2022-12-15T09:34:09.447Z,12.60
2022-12-15T09:36:38.808Z,13.20
2022-12-15T09:39:08.864Z,13.70
2022-12-15T09:41:38.788Z,14.10
2022-12-15T09:44:14.260Z,14.10
2022-12-15T09:47:12.073Z,14.20
2022-12-15T09:49:51.103Z,14.10
2022-12-15T09:52:31.678Z,14.20
2022-12-15T09:55:01.608Z,14.50
2022-12-15T09:57:54.289Z,14.90
2022-12-15T10:00:55.649Z,15.30
2022-12-15T10:04:00.025Z,15.70
2022-12-15T10:07:07.513Z,15.60
2022-12-15T10:09:36.908Z,15.70
2022-12-15T10:12:15.461Z,15.70
2022-12-15T10:14:51.741Z,15.90
2022-12-15T10:17:34.909Z,16.30
2022-12-15T10:20:08.172Z,16.60
2022-12-15T10:22:38.839Z,17.10
2022-12-15T10:25:23.586Z,17.40
2022-12-15T10:28:16.215Z,17.80
2022-12-15T10:31:26.600Z,18.40
2022-12-15T10:34:01.246Z,18.60
2022-12-15T10:36:29.435Z,19.00
2022-12-15T10:38:56.852Z,19.10
2022-12-15T10:41:27.967Z,18.70
2022-12-15T10:43:56.152Z,18.70
2022-12-15T10:46:26.699Z,18.80
2022-12-15T10:49:21.348Z,19.00
2022-12-15T10:51:57.680Z,19.00
2022-12-15T10:54:31.740Z,19.30
2022-12-15T10:57:01.724Z,18.70
2022-12-15T10:59:38.058Z,18.20
2022-12-15T11:02:24.120Z,18.30
2022-12-15T11:05:16.028Z,18.50
2022-12-15T11:08:13.457Z,18.90
2022-12-15T11:11:13.620Z,19.30
2022-12-15T11:13:42.265Z,19.90
2022-12-15T11:16:19.948Z,20.30
2022-12-15T11:19:04.933Z,20.70
2022-12-15T11:21:37.261Z,20.90
2022-12-15T11:24:09.671Z,21.60
2022-12-15T11:26:46.892Z,22.10
2022-12-15T11:29:34.486Z,22.00
2022-12-15T11:32:07.072Z,21.90
2022-12-15T11:34:47.221Z,21.30
2022-12-15T11:37:36.485Z,21.40
2022-12-15T11:40:23.622Z,21.30
2022-12-15T11:43:12.601Z,21.10
2022-12-15T11:46:10.662Z,21.40
2022-12-15T11:49:09.087Z,21.40
2022-12-15T11:51:53.849Z,21.20
2022-12-15T11:54:26.747Z,21.10
2022-12-15T11:57:10.178Z,21.50
2022-12-15T12:00:08.703Z,21.30
2022-12-15T12:02:56.823Z,21.20
2022-12-15T12:05:47.556Z,21.50
2022-12-15T12:08:33.802Z,21.80
2022-12-15T12:11:25.182Z,21.60
2022-12-15T12:14:22.160Z,21.60
2022-12-15T12:17:21.016Z,22.00
2022-12-15T12:20:07.869Z,22.30
2022-12-15T12:22:52.053Z,22.60
2022-12-15T12:25:24.819Z,22.30
2022-12-15T12:28:00.510Z,22.20
2022-12-15T12:30:38.895Z,22.10
2022-12-15T12:33:19.041Z,22.10
2022-12-15T12:35:51.718Z,22.30
2022-12-15T12:38:27.401Z,22.30
2022-12-15T12:41:22.420Z,22.70
2022-12-15T12:44:04.307Z,23.00
2022-12-15T12:46:40.441Z,23.30
2022-12-15T12:49:28.358Z,23.20
2022-12-15T12:51:58.715Z,22.80
2022-12-15T12:54:43.920Z,23.00
2022-12-15T12:57:17.112Z,23.00
2022-12-15T12:59:52.768Z,23.10
2022-12-15T13:02:26.047Z,23.40
2022-12-15T13:05:05.893Z,23.40
2022-12-15T13:07:38.713Z,23.20
2022-12-15T13:10:09.028Z,21.70
2022-12-15T13:15:45.719Z,18.50
2022-12-15T13:18:18.730Z,18.70
2022-12-15T13:20:50.536Z,19.40
2022-12-15T13:23:24.218Z,19.60
2022-12-15T13:26:03.390Z,19.60
2022-12-15T13:28:39.028Z,19.50
2022-12-15T13:31:27.608Z,18.00
2022-12-15T13:34:25.016Z,17.00
2022-12-15T13:36:56.654Z,17.00
2022-12-15T13:39:32.380Z,16.90
2022-12-15T13:42:32.700Z,16.90
2022-12-15T13:45:06.113Z,15.80
2022-12-15T13:47:33.886Z,16.00
2022-12-15T13:50:13.028Z,16.00
2022-12-15T13:53:17.815Z,16.50
2022-12-15T13:55:46.716Z,16.30
2022-12-15T13:58:19.916Z,17.00
2022-12-15T14:00:58.170Z,17.50
2022-12-15T14:03:28.930Z,17.80
2022-12-15T14:06:00.195Z,18.00
2022-12-15T14:08:32.547Z,17.80
2022-12-15T14:11:16.833Z,17.80
2022-12-15T14:13:56.065Z,17.70
2022-12-15T14:16:34.234Z,17.70
2022-12-15T14:19:17.380Z,17.70
2022-12-15T14:21:54.677Z,17.60
2022-12-15T14:24:42.770Z,17.40
2022-12-15T14:27:10.059Z,17.30
2022-12-15T14:29:37.340Z,17.20
2022-12-15T14:32:09.093Z,17.10
2022-12-15T14:34:39.962Z,16.80
2022-12-15T14:37:15.828Z,16.20
2022-12-15T14:39:47.685Z,15.10
2022-12-15T14:42:31.109Z,14.30
2022-12-15T14:44:58.653Z,13.10
2022-12-15T14:47:31.728Z,12.30
2022-12-15T14:50:01.880Z,11.70
2022-12-15T14:52:44.433Z,11.00
2022-12-15T14:55:29.754Z,10.40
2022-12-15T14:57:57.061Z,9.80
2022-12-15T15:00:34.370Z,9.40
2022-12-15T15:03:07.366Z,20.00
2022-12-15T15:05:59.990Z,8.90
2022-12-15T15:08:36.993Z,8.70
2022-12-15T15:11:37.999Z,8.50
2022-12-15T15:14:12.895Z,8.10
2022-12-15T15:16:45.018Z,7.70
2022-12-15T15:19:21.404Z,7.70
2022-12-15T15:21:48.924Z,7.50
2022-12-15T15:24:25.224Z,7.40
2022-12-15T15:26:53.535Z,7.30
2022-12-15T15:29:39.513Z,7.20
2022-12-15T15:32:25.153Z,6.80
2022-12-15T15:34:52.643Z,6.50
2022-12-15T15:37:24.177Z,6.60
2022-12-15T15:39:55.559Z,6.50
2022-12-15T15:42:30.731Z,6.30
2022-12-15T15:44:59.930Z,6.20
2022-12-15T15:47:27.784Z,6.00
2022-12-15T15:49:58.355Z,5.90
2022-12-15T15:52:28.403Z,5.70
2022-12-15T15:54:55.709Z,5.60
2022-12-15T15:57:22.957Z,5.50
2022-12-15T15:59:51.101Z,5.40
2022-12-15T16:02:21.074Z,5.20
2022-12-15T16:04:48.690Z,5.10
2022-12-15T16:07:36.753Z,5.10
2022-12-15T16:10:04.657Z,5.00
2022-12-15T16:12:40.158Z,5.00
2022-12-15T16:15:23.594Z,4.90
2022-12-15T16:17:50.861Z,4.60
2022-12-15T16:20:22.149Z,4.50
2022-12-15T16:22:59.739Z,4.30
2022-12-15T16:25:46.667Z,4.20
2022-12-15T16:28:20.538Z,4.10
2022-12-15T16:30:48.291Z,4.00
2022-12-15T16:33:15.924Z,4.00
2022-12-15T16:35:50.064Z,4.00
2022-12-15T16:38:29.123Z,3.90
2022-12-15T16:41:04.728Z,3.90
2022-12-15T16:43:37.360Z,3.80
2022-12-15T16:46:09.217Z,3.90
2022-12-15T16:48:37.651Z,3.80
2022-12-15T16:51:07.869Z,3.80
2022-12-15T16:53:41.101Z,3.70
2022-12-15T16:56:14.048Z,3.60
2022-12-15T16:58:41.325Z,3.40
2022-12-15T17:01:15.897Z,3.40
2022-12-15T17:03:43.331Z,3.40
2022-12-15T17:06:15.347Z,3.30
2022-12-15T17:08:54.397Z,3.00
2022-12-15T17:11:26.030Z,3.00
2022-12-15T17:13:56.822Z,3.00
2022-12-15T17:16:25.861Z,2.90
2022-12-15T17:18:55.869Z,2.80
2022-12-15T17:21:35.390Z,2.90
2022-12-15T17:24:11.337Z,3.00
2022-12-15T17:26:38.746Z,3.10
2022-12-15T17:29:16.328Z,3.10
2022-12-15T17:31:43.726Z,3.30
2022-12-15T17:34:28.693Z,3.50
2022-12-15T17:36:59.325Z,3.50
2022-12-15T17:39:27.836Z,3.70
2022-12-15T17:42:00.600Z,3.40
2022-12-15T17:44:35.791Z,3.30
2022-12-15T17:47:06.530Z,3.20
2022-12-15T17:49:38.295Z,3.10
2022-12-15T17:52:18.404Z,3.00
2022-12-15T17:54:47.880Z,3.00
2022-12-15T17:57:15.156Z,3.10
2022-12-15T17:59:46.961Z,3.10
2022-12-15T18:02:15.027Z,3.20
2022-12-15T18:04:43.229Z,3.10
2022-12-15T18:07:24.252Z,3.20
2022-12-15T18:09:53.138Z,3.20
2022-12-15T18:12:22.978Z,3.30
2022-12-15T18:14:53.087Z,3.40
2022-12-15T18:17:20.810Z,3.30
2022-12-15T18:19:50.689Z,3.30
2022-12-15T18:22:23.431Z,3.20
2022-12-15T18:24:53.322Z,3.10
2022-12-15T18:27:26.548Z,3.20
2022-12-15T18:29:56.866Z,3.00
2022-12-15T18:32:26.852Z,2.80
2022-12-15T18:34:54.885Z,2.80
2022-12-15T18:37:24.647Z,2.70
2022-12-15T18:39:52.373Z,2.60
2022-12-15T18:42:21.348Z,2.60
2022-12-15T18:44:51.619Z,2.60
2022-12-15T18:47:23.404Z,2.60
2022-12-15T18:49:55.563Z,2.40
2022-12-15T18:52:26.487Z,2.30
2022-12-15T18:54:56.050Z,2.20
2022-12-15T18:57:35.806Z,2.40
2022-12-15T19:00:19.074Z,2.40
2022-12-15T19:02:46.586Z,2.40
2022-12-15T19:05:28.926Z,2.50
2022-12-15T19:08:10.079Z,2.50
2022-12-15T19:10:52.566Z,2.50
2022-12-15T19:13:25.225Z,2.50
2022-12-15T19:15:53.476Z,2.40
2022-12-15T19:18:42.121Z,2.40
2022-12-15T19:21:36.657Z,2.20
2022-12-15T19:24:06.437Z,2.10
2022-12-15T19:26:36.841Z,2.20
2022-12-15T19:29:17.770Z,2.10
2022-12-15T19:31:46.485Z,1.90
2022-12-15T19:34:14.491Z,1.90
2022-12-15T19:36:43.888Z,1.80
2022-12-15T19:39:22.744Z,1.70
2022-12-15T19:41:50.719Z,1.50
2022-12-15T19:44:20.507Z,1.50
2022-12-15T19:46:47.725Z,1.40
2022-12-15T19:49:15.295Z,1.40
2022-12-15T19:51:43.460Z,1.50
2022-12-15T19:54:17.472Z,1.40
2022-12-15T19:56:44.808Z,1.20
2022-12-15T19:59:22.408Z,1.10
2022-12-15T20:01:51.936Z,1.10
2022-12-15T20:04:24.032Z,1.10
2022-12-15T20:06:54.100Z,1.00
2022-12-15T20:09:21.317Z,1.00
2022-12-15T20:11:48.645Z,1.00
2022-12-15T20:14:20.038Z,1.00
2022-12-15T20:16:47.381Z,1.00
2022-12-15T20:19:14.715Z,1.10
2022-12-15T20:21:42.179Z,1.10
2022-12-15T20:24:18.725Z,1.00
2022-12-15T20:26:48.815Z,1.00
2022-12-15T20:29:25.397Z,1.00
2022-12-15T20:31:54.339Z,0.90
2022-12-15T20:34:22.230Z,0.80
2022-12-15T20:36:51.801Z,0.60
2022-12-15T20:39:27.441Z,0.60
2022-12-15T20:41:57.386Z,0.40
2022-12-15T20:44:24.657Z,0.30
2022-12-15T20:46:52.171Z,0.30
2022-12-15T20:49:21.785Z,0.30
2022-12-15T20:51:53.576Z,0.30
2022-12-15T20:54:22.502Z,0.30
2022-12-15T20:56:54.317Z,0.20
2022-12-15T20:59:21.567Z,0.10
2022-12-15T21:01:51.120Z,0.10
2022-12-15T21:04:26.466Z,0.20
2022-12-15T21:06:56.895Z,0.20
2022-12-15T21:09:28.541Z,0.20
2022-12-15T21:11:58.466Z,0.20
2022-12-15T21:14:28.172Z,0.00
2022-12-15T21:17:00.650Z,-0.40
2022-12-15T21:19:32.905Z,-0.40
2022-12-15T21:22:02.752Z,-0.40
2022-12-15T21:24:30.991Z,-0.30
2022-12-15T21:26:58.237Z,-0.20
2022-12-15T21:29:28.579Z,-0.10
2022-12-15T21:31:55.832Z,0.00
2022-12-15T21:34:25.666Z,0.00
2022-12-15T21:36:59.033Z,0.10
2022-12-15T21:39:34.072Z,0.00
2022-12-15T21:42:06.949Z,0.00
2022-12-15T21:44:41.606Z,-0.10
2022-12-15T21:47:47.344Z,-0.20
2022-12-15T21:50:15.756Z,-0.50
2022-12-15T21:52:49.257Z,-0.70
2022-12-15T21:55:17.976Z,-0.90
2022-12-15T21:57:45.667Z,-0.80
2022-12-15T22:00:17.403Z,-0.80
2022-12-15T22:02:48.313Z,-0.70
2022-12-15T22:05:31.434Z,-0.50
2022-12-15T22:08:01.145Z,-0.50
2022-12-15T22:10:28.410Z,-0.60
2022-12-15T22:12:59.621Z,-0.50
2022-12-15T22:15:29.429Z,-0.30
2022-12-15T22:17:56.835Z,-0.10
2022-12-15T22:20:25.295Z,0.00
2022-12-15T22:22:52.619Z,0.00
2022-12-15T22:25:26.419Z,0.00
2022-12-15T22:27:54.665Z,0.00
2022-12-15T22:30:29.155Z,-0.10
2022-12-15T22:32:56.502Z,-0.10
2022-12-15T22:35:26.311Z,0.00
2022-12-15T22:37:53.996Z,0.00
2022-12-15T22:40:23.801Z,-0.20
2022-12-15T22:42:57.896Z,-0.20
2022-12-15T22:45:29.793Z,-0.20
2022-12-15T22:47:57.088Z,-0.30
2022-12-15T22:50:26.781Z,-0.30
2022-12-15T22:52:55.193Z,-0.40
2022-12-15T22:55:24.470Z,-0.40
2022-12-15T22:58:00.652Z,-0.40
2022-12-15T23:00:28.475Z,-0.50
2022-12-15T23:05:27.562Z,-0.40
2022-12-15T23:07:54.990Z,-0.50
2022-12-15T23:10:40.629Z,-0.50
2022-12-15T23:13:08.018Z,-0.50
2022-12-15T23:15:54.771Z,-0.60
2022-12-15T23:18:22.234Z,-0.50
2022-12-15T23:20:51.589Z,-0.40
2022-12-15T23:23:19.786Z,-0.50
2022-12-15T23:25:46.969Z,-0.30
2022-12-15T23:28:16.514Z,-0.20
2022-12-15T23:30:49.577Z,0.00
2022-12-15T23:33:16.856Z,0.10
2022-12-15T23:35:44.790Z,0.40
2022-12-15T23:38:12.347Z,0.50
2022-12-15T23:40:52.565Z,0.60
2022-12-15T23:43:21.720Z,0.70
2022-12-15T23:46:06.066Z,0.90
2022-12-15T23:48:39.387Z,1.00
2022-12-15T23:51:10.868Z,1.20
2022-12-15T23:53:41.619Z,1.40
2022-12-15T23:56:10.870Z,1.30
2022-12-15T23:58:42.537Z,1.20
